Strona główna
METAR-TAF:

METAR-TAF

Lotnisko :

Béziers, Francja

Szerokość geograficzna: 43-19N, Długość geograficzna: 003-21E, wysokość: 17 m

Aktualna obserwacja pogody

Raport powstał 37 minut temu, godzina 10:30 UTC
Wiatr 14 kt od północno-północny zachód, zmienny między zachodnio-północny zachód i północ
Temperatura 11°C
Wilgotność 50%
Ciśnienie 1015 hPa
Widzialność 10 km lub więcej
Brak chmur poniżej 1500 m i brak chmur cumulonimbus

METAR: LFMU 191030Z AUTO 33014KT 300V360 CAVOK 11/01 Q1015 NOSIG

czas: 12:07 (11:07 UTC)

Prognoza

Raport powstał 3 godziny i 7 minut temu, godzina 08:00 UTC
Prognoza ważna od 19 godzina 09 UTC do 20 godzina 09 UTC
Wiatr 12 kt od zachód
Widzialność 10 km lub więcej
Brak chmur poniżej 1500 m i brak chmur cumulonimbus
Stopniowe zmiany
od 19 godzina 14 UTC do 19 godzina 16 UTC
Wiatr 3 kt z kierunków zmiennych

TAF: LFMU 190800Z 1909/2009 28012KT CAVOK BECMG 1914/1916 VRB03KT

Obserwacja i prognoza pogody dla ponad 4000 lotnisk (raport METAR i TAF).

Dostępne stacje oznaczono żółtymi i czerwonymi punktami na mapie.

Najedź kursorem aby zobaczyć nazwę stacji.

Kliknij aby zobaczyć obserwacje i prognozy pogody.

Aby zmienić mapę: kliknij na zielony przycisk z czarnym krzyżykiem, aby powiększyć; na zielony przycisk z myślnikiem, aby pomniejszyć; na zielone strzałki, aby przejść do map sąsiednich.


METAR-TAF: